sensor_id;sensor_type;location;lat;lon;timestamp;temperature;humidity
52187;DHT22;38161;53.020;6.598;2024-01-27T00:02:01;3.50;99.90
52187;DHT22;38161;53.020;6.598;2024-01-27T00:04:27;3.50;99.90
52187;DHT22;38161;53.020;6.598;2024-01-27T00:06:52;3.50;99.90
52187;DHT22;38161;53.020;6.598;2024-01-27T00:09:18;3.50;99.90
52187;DHT22;38161;53.020;6.598;2024-01-27T00:11:44;3.50;99.90
52187;DHT22;38161;53.020;6.598;2024-01-27T00:14:10;3.50;99.90
52187;DHT22;38161;53.020;6.598;2024-01-27T00:16:36;3.40;99.90
52187;DHT22;38161;53.020;6.598;2024-01-27T00:19:01;3.40;99.90
52187;DHT22;38161;53.020;6.598;2024-01-27T00:21:27;3.40;99.90
52187;DHT22;38161;53.020;6.598;2024-01-27T00:23:53;3.40;99.90
52187;DHT22;38161;53.020;6.598;2024-01-27T00:26:19;3.50;99.90
52187;DHT22;38161;53.020;6.598;2024-01-27T00:28:45;3.40;99.90
52187;DHT22;38161;53.020;6.598;2024-01-27T00:31:10;3.40;99.90
52187;DHT22;38161;53.020;6.598;2024-01-27T00:33:36;3.40;99.90
52187;DHT22;38161;53.020;6.598;2024-01-27T00:36:02;3.40;99.90
52187;DHT22;38161;53.020;6.598;2024-01-27T00:38:28;3.30;99.90
52187;DHT22;38161;53.020;6.598;2024-01-27T00:40:53;3.40;99.90
52187;DHT22;38161;53.020;6.598;2024-01-27T00:43:19;3.40;99.90
52187;DHT22;38161;53.020;6.598;2024-01-27T00:45:45;3.40;99.90
52187;DHT22;38161;53.020;6.598;2024-01-27T00:48:11;3.30;99.90
52187;DHT22;38161;53.020;6.598;2024-01-27T00:50:36;3.30;99.90
52187;DHT22;38161;53.020;6.598;2024-01-27T00:53:02;3.30;99.90
52187;DHT22;38161;53.020;6.598;2024-01-27T00:55:28;3.30;99.90
52187;DHT22;38161;53.020;6.598;2024-01-27T00:57:54;3.30;99.90
52187;DHT22;38161;53.020;6.598;2024-01-27T01:00:20;3.30;99.90
52187;DHT22;38161;53.020;6.598;2024-01-27T01:02:46;3.30;99.90
52187;DHT22;38161;53.020;6.598;2024-01-27T01:05:12;3.30;99.90
52187;DHT22;38161;53.020;6.598;2024-01-27T01:07:39;3.30;99.90
52187;DHT22;38161;53.020;6.598;2024-01-27T01:10:05;3.30;99.90
52187;DHT22;38161;53.020;6.598;2024-01-27T01:12:31;3.30;99.90
52187;DHT22;38161;53.020;6.598;2024-01-27T01:14:57;3.30;99.90
52187;DHT22;38161;53.020;6.598;2024-01-27T01:17:23;3.30;99.90
52187;DHT22;38161;53.020;6.598;2024-01-27T01:19:49;3.30;99.90
52187;DHT22;38161;53.020;6.598;2024-01-27T01:22:14;3.30;99.90
52187;DHT22;38161;53.020;6.598;2024-01-27T01:24:40;3.20;99.90
52187;DHT22;38161;53.020;6.598;2024-01-27T01:27:06;3.30;99.90
52187;DHT22;38161;53.020;6.598;2024-01-27T01:29:32;3.30;99.90
52187;DHT22;38161;53.020;6.598;2024-01-27T01:31:57;3.30;99.90
52187;DHT22;38161;53.020;6.598;2024-01-27T01:34:23;3.20;99.90
52187;DHT22;38161;53.020;6.598;2024-01-27T01:36:49;3.20;99.90
52187;DHT22;38161;53.020;6.598;2024-01-27T01:39:15;3.20;99.90
52187;DHT22;38161;53.020;6.598;2024-01-27T01:41:41;3.20;99.90
52187;DHT22;38161;53.020;6.598;2024-01-27T01:44:07;3.20;99.90
52187;DHT22;38161;53.020;6.598;2024-01-27T01:46:34;3.20;99.90
52187;DHT22;38161;53.020;6.598;2024-01-27T01:49:00;3.20;99.90
52187;DHT22;38161;53.020;6.598;2024-01-27T01:51:27;3.20;99.90
52187;DHT22;38161;53.020;6.598;2024-01-27T01:53:57;3.20;99.90
52187;DHT22;38161;53.020;6.598;2024-01-27T01:56:24;3.20;99.90
52187;DHT22;38161;53.020;6.598;2024-01-27T01:58:50;3.20;99.90
52187;DHT22;38161;53.020;6.598;2024-01-27T02:01:18;3.20;99.90
52187;DHT22;38161;53.020;6.598;2024-01-27T02:03:55;3.20;99.90
52187;DHT22;38161;53.020;6.598;2024-01-27T02:06:22;3.20;99.90
52187;DHT22;38161;53.020;6.598;2024-01-27T02:08:48;3.20;99.90
52187;DHT22;38161;53.020;6.598;2024-01-27T02:11:14;3.20;99.90
52187;DHT22;38161;53.020;6.598;2024-01-27T02:13:40;3.20;99.90
52187;DHT22;38161;53.020;6.598;2024-01-27T02:16:06;3.20;99.90
52187;DHT22;38161;53.020;6.598;2024-01-27T02:18:31;3.20;99.90
52187;DHT22;38161;53.020;6.598;2024-01-27T02:20:57;3.20;99.90
52187;DHT22;38161;53.020;6.598;2024-01-27T02:23:23;3.20;99.90
52187;DHT22;38161;53.020;6.598;2024-01-27T02:25:49;3.20;99.90
52187;DHT22;38161;53.020;6.598;2024-01-27T02:28:16;3.20;99.90
52187;DHT22;38161;53.020;6.598;2024-01-27T02:30:42;3.20;99.90
52187;DHT22;38161;53.020;6.598;2024-01-27T02:33:08;3.20;99.90
52187;DHT22;38161;53.020;6.598;2024-01-27T02:35:33;3.20;99.90
52187;DHT22;38161;53.020;6.598;2024-01-27T02:37:59;3.20;99.90
52187;DHT22;38161;53.020;6.598;2024-01-27T02:40:25;3.20;99.90
52187;DHT22;38161;53.020;6.598;2024-01-27T02:42:51;3.20;99.90
52187;DHT22;38161;53.020;6.598;2024-01-27T02:45:17;3.20;99.90
52187;DHT22;38161;53.020;6.598;2024-01-27T02:47:42;3.20;99.90
52187;DHT22;38161;53.020;6.598;2024-01-27T02:50:09;3.20;99.90
52187;DHT22;38161;53.020;6.598;2024-01-27T02:52:34;3.20;99.90
52187;DHT22;38161;53.020;6.598;2024-01-27T02:55:00;3.20;99.90
52187;DHT22;38161;53.020;6.598;2024-01-27T02:57:26;3.10;99.90
52187;DHT22;38161;53.020;6.598;2024-01-27T02:59:52;3.10;99.90
52187;DHT22;38161;53.020;6.598;2024-01-27T03:02:18;3.10;99.90
52187;DHT22;38161;53.020;6.598;2024-01-27T03:04:44;3.10;99.90
52187;DHT22;38161;53.020;6.598;2024-01-27T03:07:09;3.10;99.90
52187;DHT22;38161;53.020;6.598;2024-01-27T03:09:35;3.10;99.90
52187;DHT22;38161;53.020;6.598;2024-01-27T03:12:02;3.10;99.90
52187;DHT22;38161;53.020;6.598;2024-01-27T03:14:27;3.10;99.90
52187;DHT22;38161;53.020;6.598;2024-01-27T03:16:54;3.10;99.90
52187;DHT22;38161;53.020;6.598;2024-01-27T03:19:20;3.10;99.90
52187;DHT22;38161;53.020;6.598;2024-01-27T03:21:46;3.10;99.90
52187;DHT22;38161;53.020;6.598;2024-01-27T03:24:11;3.10;99.90
52187;DHT22;38161;53.020;6.598;2024-01-27T03:26:37;3.10;99.90
52187;DHT22;38161;53.020;6.598;2024-01-27T03:29:03;3.10;99.90
52187;DHT22;38161;53.020;6.598;2024-01-27T03:31:35;3.10;99.90
52187;DHT22;38161;53.020;6.598;2024-01-27T03:34:01;3.10;99.90
52187;DHT22;38161;53.020;6.598;2024-01-27T03:36:28;3.10;99.90
52187;DHT22;38161;53.020;6.598;2024-01-27T03:38:55;3.00;99.90
52187;DHT22;38161;53.020;6.598;2024-01-27T03:41:21;3.00;99.90
52187;DHT22;38161;53.020;6.598;2024-01-27T03:43:47;3.00;99.90
52187;DHT22;38161;53.020;6.598;2024-01-27T03:46:13;3.00;99.90
52187;DHT22;38161;53.020;6.598;2024-01-27T03:48:38;3.00;99.90
52187;DHT22;38161;53.020;6.598;2024-01-27T03:51:04;3.00;99.90
52187;DHT22;38161;53.020;6.598;2024-01-27T03:53:31;2.90;99.90
52187;DHT22;38161;53.020;6.598;2024-01-27T03:55:57;2.90;99.90
52187;DHT22;38161;53.020;6.598;2024-01-27T03:58:32;3.10;99.90
52187;DHT22;38161;53.020;6.598;2024-01-27T04:00:58;2.90;99.90
52187;DHT22;38161;53.020;6.598;2024-01-27T04:03:26;2.90;99.90
52187;DHT22;38161;53.020;6.598;2024-01-27T04:05:52;2.90;99.90
52187;DHT22;38161;53.020;6.598;2024-01-27T04:08:18;2.90;99.90
52187;DHT22;38161;53.020;6.598;2024-01-27T04:10:44;2.90;99.90
52187;DHT22;38161;53.020;6.598;2024-01-27T04:13:10;2.90;99.90
52187;DHT22;38161;53.020;6.598;2024-01-27T04:15:36;2.90;99.90
52187;DHT22;38161;53.020;6.598;2024-01-27T04:18:05;2.90;99.90
52187;DHT22;38161;53.020;6.598;2024-01-27T04:20:36;2.90;99.90
52187;DHT22;38161;53.020;6.598;2024-01-27T04:23:02;2.90;99.90
52187;DHT22;38161;53.020;6.598;2024-01-27T04:25:28;2.90;99.90
52187;DHT22;38161;53.020;6.598;2024-01-27T04:27:54;2.90;99.90
52187;DHT22;38161;53.020;6.598;2024-01-27T04:30:19;2.90;99.90
52187;DHT22;38161;53.020;6.598;2024-01-27T04:32:48;2.90;99.90
52187;DHT22;38161;53.020;6.598;2024-01-27T04:35:17;2.90;99.90
52187;DHT22;38161;53.020;6.598;2024-01-27T04:37:44;2.90;99.90
52187;DHT22;38161;53.020;6.598;2024-01-27T04:40:10;2.90;99.90
52187;DHT22;38161;53.020;6.598;2024-01-27T04:42:40;2.90;99.90
52187;DHT22;38161;53.020;6.598;2024-01-27T04:45:06;2.90;99.90
52187;DHT22;38161;53.020;6.598;2024-01-27T04:47:32;2.90;99.90
52187;DHT22;38161;53.020;6.598;2024-01-27T04:49:58;2.90;99.90
52187;DHT22;38161;53.020;6.598;2024-01-27T04:52:24;2.80;99.90
52187;DHT22;38161;53.020;6.598;2024-01-27T04:54:50;2.90;99.90
52187;DHT22;38161;53.020;6.598;2024-01-27T04:57:16;2.90;99.90
52187;DHT22;38161;53.020;6.598;2024-01-27T04:59:45;2.80;99.90
52187;DHT22;38161;53.020;6.598;2024-01-27T05:02:12;2.90;99.90
52187;DHT22;38161;53.020;6.598;2024-01-27T05:04:37;2.90;99.90
52187;DHT22;38161;53.020;6.598;2024-01-27T05:07:04;2.90;99.90
52187;DHT22;38161;53.020;6.598;2024-01-27T05:09:29;2.90;99.90
52187;DHT22;38161;53.020;6.598;2024-01-27T05:11:55;2.90;99.90
52187;DHT22;38161;53.020;6.598;2024-01-27T05:14:21;2.90;99.90
52187;DHT22;38161;53.020;6.598;2024-01-27T05:16:50;2.90;99.90
52187;DHT22;38161;53.020;6.598;2024-01-27T05:19:15;2.80;99.90
52187;DHT22;38161;53.020;6.598;2024-01-27T05:21:43;2.80;99.90
52187;DHT22;38161;53.020;6.598;2024-01-27T05:24:10;2.80;99.90
52187;DHT22;38161;53.020;6.598;2024-01-27T05:26:35;2.80;99.90
52187;DHT22;38161;53.020;6.598;2024-01-27T05:29:01;2.80;99.90
52187;DHT22;38161;53.020;6.598;2024-01-27T05:31:27;2.80;99.90
52187;DHT22;38161;53.020;6.598;2024-01-27T05:33:53;2.70;99.90
52187;DHT22;38161;53.020;6.598;2024-01-27T05:36:19;2.80;99.90
52187;DHT22;38161;53.020;6.598;2024-01-27T05:38:45;2.80;99.90
52187;DHT22;38161;53.020;6.598;2024-01-27T05:41:10;2.80;99.90
52187;DHT22;38161;53.020;6.598;2024-01-27T05:43:36;2.80;99.90
52187;DHT22;38161;53.020;6.598;2024-01-27T05:46:02;2.80;99.90
52187;DHT22;38161;53.020;6.598;2024-01-27T05:48:28;2.80;99.90
52187;DHT22;38161;53.020;6.598;2024-01-27T05:50:58;2.80;99.90
52187;DHT22;38161;53.020;6.598;2024-01-27T05:53:25;2.80;99.90
52187;DHT22;38161;53.020;6.598;2024-01-27T05:55:51;2.80;99.90
52187;DHT22;38161;53.020;6.598;2024-01-27T05:58:17;2.70;99.90
52187;DHT22;38161;53.020;6.598;2024-01-27T06:00:47;2.70;99.90
52187;DHT22;38161;53.020;6.598;2024-01-27T06:03:12;2.70;99.90
52187;DHT22;38161;53.020;6.598;2024-01-27T06:05:38;2.70;99.90
52187;DHT22;38161;53.020;6.598;2024-01-27T06:08:05;2.70;99.90
52187;DHT22;38161;53.020;6.598;2024-01-27T06:10:31;2.70;99.90
52187;DHT22;38161;53.020;6.598;2024-01-27T06:12:57;2.70;99.90
52187;DHT22;38161;53.020;6.598;2024-01-27T06:15:23;2.70;99.90
52187;DHT22;38161;53.020;6.598;2024-01-27T06:17:48;2.70;99.90
52187;DHT22;38161;53.020;6.598;2024-01-27T06:20:14;2.70;99.90
52187;DHT22;38161;53.020;6.598;2024-01-27T06:22:42;2.60;99.90
52187;DHT22;38161;53.020;6.598;2024-01-27T06:25:08;2.60;99.90
52187;DHT22;38161;53.020;6.598;2024-01-27T06:27:36;2.60;99.90
52187;DHT22;38161;53.020;6.598;2024-01-27T06:30:04;2.60;99.90
52187;DHT22;38161;53.020;6.598;2024-01-27T06:32:30;2.60;99.90
52187;DHT22;38161;53.020;6.598;2024-01-27T06:34:56;2.60;99.90
52187;DHT22;38161;53.020;6.598;2024-01-27T06:37:21;2.50;99.90
52187;DHT22;38161;53.020;6.598;2024-01-27T06:39:47;2.50;99.90
52187;DHT22;38161;53.020;6.598;2024-01-27T06:42:13;2.50;99.90
52187;DHT22;38161;53.020;6.598;2024-01-27T06:44:38;2.50;99.90
52187;DHT22;38161;53.020;6.598;2024-01-27T06:47:04;2.50;99.90
52187;DHT22;38161;53.020;6.598;2024-01-27T06:49:30;2.50;99.90
52187;DHT22;38161;53.020;6.598;2024-01-27T06:51:56;2.40;99.90
52187;DHT22;38161;53.020;6.598;2024-01-27T06:54:21;2.40;99.90
52187;DHT22;38161;53.020;6.598;2024-01-27T06:56:47;2.40;99.90
52187;DHT22;38161;53.020;6.598;2024-01-27T06:59:13;2.40;99.90
52187;DHT22;38161;53.020;6.598;2024-01-27T07:01:44;2.40;99.90
52187;DHT22;38161;53.020;6.598;2024-01-27T07:04:10;2.40;99.90
52187;DHT22;38161;53.020;6.598;2024-01-27T07:06:36;2.40;99.90
52187;DHT22;38161;53.020;6.598;2024-01-27T07:09:02;2.40;99.90
52187;DHT22;38161;53.020;6.598;2024-01-27T07:11:27;2.40;99.90
52187;DHT22;38161;53.020;6.598;2024-01-27T07:13:53;2.30;99.90
52187;DHT22;38161;53.020;6.598;2024-01-27T07:16:19;2.30;99.90
52187;DHT22;38161;53.020;6.598;2024-01-27T07:18:45;2.30;99.90
52187;DHT22;38161;53.020;6.598;2024-01-27T07:21:15;2.30;99.90
52187;DHT22;38161;53.020;6.598;2024-01-27T07:23:42;2.40;99.90
52187;DHT22;38161;53.020;6.598;2024-01-27T07:26:10;2.20;99.90
52187;DHT22;38161;53.020;6.598;2024-01-27T07:28:36;2.20;99.90
52187;DHT22;38161;53.020;6.598;2024-01-27T07:31:03;2.10;99.90
52187;DHT22;38161;53.020;6.598;2024-01-27T07:33:29;2.10;99.90
52187;DHT22;38161;53.020;6.598;2024-01-27T07:35:54;2.10;99.90
52187;DHT22;38161;53.020;6.598;2024-01-27T07:38:20;2.10;99.90
52187;DHT22;38161;53.020;6.598;2024-01-27T07:40:46;2.10;99.90
52187;DHT22;38161;53.020;6.598;2024-01-27T07:43:12;2.00;99.90
52187;DHT22;38161;53.020;6.598;2024-01-27T07:45:37;2.10;99.90
52187;DHT22;38161;53.020;6.598;2024-01-27T07:48:03;2.10;99.90
52187;DHT22;38161;53.020;6.598;2024-01-27T07:50:29;2.10;99.90
52187;DHT22;38161;53.020;6.598;2024-01-27T07:52:55;2.10;99.90
52187;DHT22;38161;53.020;6.598;2024-01-27T07:55:21;2.10;99.90
52187;DHT22;38161;53.020;6.598;2024-01-27T07:57:47;2.20;99.90
52187;DHT22;38161;53.020;6.598;2024-01-27T08:00:13;2.20;99.90
52187;DHT22;38161;53.020;6.598;2024-01-27T08:02:38;2.20;99.90
52187;DHT22;38161;53.020;6.598;2024-01-27T08:05:04;2.20;99.90
52187;DHT22;38161;53.020;6.598;2024-01-27T08:07:31;2.20;99.90
52187;DHT22;38161;53.020;6.598;2024-01-27T08:09:57;2.20;99.90
52187;DHT22;38161;53.020;6.598;2024-01-27T08:12:23;2.30;99.90
52187;DHT22;38161;53.020;6.598;2024-01-27T08:14:49;2.30;99.90
52187;DHT22;38161;53.020;6.598;2024-01-27T08:17:15;2.30;99.90
52187;DHT22;38161;53.020;6.598;2024-01-27T08:19:40;2.30;99.90
52187;DHT22;38161;53.020;6.598;2024-01-27T08:22:06;2.50;99.90
52187;DHT22;38161;53.020;6.598;2024-01-27T08:24:35;2.40;99.90
52187;DHT22;38161;53.020;6.598;2024-01-27T08:27:01;2.40;99.90
52187;DHT22;38161;53.020;6.598;2024-01-27T08:29:27;2.40;99.90
52187;DHT22;38161;53.020;6.598;2024-01-27T08:31:52;2.40;99.90
52187;DHT22;38161;53.020;6.598;2024-01-27T08:34:18;2.40;99.90
52187;DHT22;38161;53.020;6.598;2024-01-27T08:36:44;2.50;99.90
52187;DHT22;38161;53.020;6.598;2024-01-27T08:39:10;2.50;99.90
52187;DHT22;38161;53.020;6.598;2024-01-27T08:41:38;2.50;99.90
52187;DHT22;38161;53.020;6.598;2024-01-27T08:44:03;2.50;99.90
52187;DHT22;38161;53.020;6.598;2024-01-27T08:46:29;2.50;99.90
52187;DHT22;38161;53.020;6.598;2024-01-27T08:48:55;2.50;99.90
52187;DHT22;38161;53.020;6.598;2024-01-27T08:51:21;2.60;99.90
52187;DHT22;38161;53.020;6.598;2024-01-27T08:53:47;2.90;99.90
52187;DHT22;38161;53.020;6.598;2024-01-27T08:56:16;2.60;99.90
52187;DHT22;38161;53.020;6.598;2024-01-27T08:58:43;2.60;99.90
52187;DHT22;38161;53.020;6.598;2024-01-27T09:01:10;2.70;99.90
52187;DHT22;38161;53.020;6.598;2024-01-27T09:03:39;2.70;99.90
52187;DHT22;38161;53.020;6.598;2024-01-27T09:06:06;2.70;99.90
52187;DHT22;38161;53.020;6.598;2024-01-27T09:08:34;2.80;99.90
52187;DHT22;38161;53.020;6.598;2024-01-27T09:11:00;2.80;99.90
52187;DHT22;38161;53.020;6.598;2024-01-27T09:13:26;2.80;99.90
52187;DHT22;38161;53.020;6.598;2024-01-27T09:15:52;2.90;99.90
52187;DHT22;38161;53.020;6.598;2024-01-27T09:18:18;2.90;99.90
52187;DHT22;38161;53.020;6.598;2024-01-27T09:20:44;3.00;99.90
52187;DHT22;38161;53.020;6.598;2024-01-27T09:23:10;3.00;99.90
52187;DHT22;38161;53.020;6.598;2024-01-27T09:25:35;3.00;99.90
52187;DHT22;38161;53.020;6.598;2024-01-27T09:28:01;3.10;99.90
52187;DHT22;38161;53.020;6.598;2024-01-27T09:30:27;3.10;99.90
52187;DHT22;38161;53.020;6.598;2024-01-27T09:32:53;3.20;99.90
52187;DHT22;38161;53.020;6.598;2024-01-27T09:35:19;3.20;99.90
52187;DHT22;38161;53.020;6.598;2024-01-27T09:37:46;3.30;99.90
52187;DHT22;38161;53.020;6.598;2024-01-27T09:40:12;3.30;99.90
52187;DHT22;38161;53.020;6.598;2024-01-27T09:42:38;3.40;99.90
52187;DHT22;38161;53.020;6.598;2024-01-27T09:45:05;3.50;99.90
52187;DHT22;38161;53.020;6.598;2024-01-27T09:47:31;3.60;99.90
52187;DHT22;38161;53.020;6.598;2024-01-27T09:49:57;3.80;99.90
52187;DHT22;38161;53.020;6.598;2024-01-27T09:52:24;3.90;99.90
52187;DHT22;38161;53.020;6.598;2024-01-27T09:54:50;4.10;99.90
52187;DHT22;38161;53.020;6.598;2024-01-27T09:57:15;4.40;99.90
52187;DHT22;38161;53.020;6.598;2024-01-27T09:59:45;4.80;99.90
52187;DHT22;38161;53.020;6.598;2024-01-27T10:02:12;5.10;99.90
52187;DHT22;38161;53.020;6.598;2024-01-27T10:04:41;5.40;99.90
52187;DHT22;38161;53.020;6.598;2024-01-27T10:07:07;5.90;99.90
52187;DHT22;38161;53.020;6.598;2024-01-27T10:09:33;6.20;99.90
52187;DHT22;38161;53.020;6.598;2024-01-27T10:12:01;6.70;99.90
52187;DHT22;38161;53.020;6.598;2024-01-27T10:14:42;6.80;99.90
52187;DHT22;38161;53.020;6.598;2024-01-27T10:17:20;7.20;99.90
52187;DHT22;38161;53.020;6.598;2024-01-27T10:19:46;7.30;99.90
52187;DHT22;38161;53.020;6.598;2024-01-27T10:22:12;7.50;99.90
52187;DHT22;38161;53.020;6.598;2024-01-27T10:24:38;7.60;99.90
52187;DHT22;38161;53.020;6.598;2024-01-27T10:27:04;7.60;99.90
52187;DHT22;38161;53.020;6.598;2024-01-27T10:29:31;7.80;99.90
52187;DHT22;38161;53.020;6.598;2024-01-27T10:32:06;8.20;99.90
52187;DHT22;38161;53.020;6.598;2024-01-27T10:34:32;8.30;99.90
52187;DHT22;38161;53.020;6.598;2024-01-27T10:36:58;8.50;99.90
52187;DHT22;38161;53.020;6.598;2024-01-27T10:39:24;8.60;99.90
52187;DHT22;38161;53.020;6.598;2024-01-27T10:41:50;8.70;99.90
52187;DHT22;38161;53.020;6.598;2024-01-27T10:44:18;8.90;99.90
52187;DHT22;38161;53.020;6.598;2024-01-27T10:46:46;9.00;99.90
52187;DHT22;38161;53.020;6.598;2024-01-27T10:49:18;9.30;99.90
52187;DHT22;38161;53.020;6.598;2024-01-27T10:51:54;9.60;99.90
52187;DHT22;38161;53.020;6.598;2024-01-27T10:54:25;9.80;99.90
52187;DHT22;38161;53.020;6.598;2024-01-27T10:56:55;9.80;99.90
52187;DHT22;38161;53.020;6.598;2024-01-27T10:59:21;10.00;99.90
52187;DHT22;38161;53.020;6.598;2024-01-27T11:01:49;10.10;99.90
52187;DHT22;38161;53.020;6.598;2024-01-27T11:04:20;10.40;99.90
52187;DHT22;38161;53.020;6.598;2024-01-27T11:06:50;10.60;99.90
52187;DHT22;38161;53.020;6.598;2024-01-27T11:09:18;10.60;99.90
52187;DHT22;38161;53.020;6.598;2024-01-27T11:11:45;10.60;99.90
52187;DHT22;38161;53.020;6.598;2024-01-27T11:14:12;10.50;99.90
52187;DHT22;38161;53.020;6.598;2024-01-27T11:16:38;10.50;99.90
52187;DHT22;38161;53.020;6.598;2024-01-27T11:19:13;10.70;99.90
52187;DHT22;38161;53.020;6.598;2024-01-27T11:21:39;10.80;99.90
52187;DHT22;38161;53.020;6.598;2024-01-27T11:24:18;10.90;99.90
52187;DHT22;38161;53.020;6.598;2024-01-27T11:26:44;11.00;99.90
52187;DHT22;38161;53.020;6.598;2024-01-27T11:29:10;11.30;99.90
52187;DHT22;38161;53.020;6.598;2024-01-27T11:31:45;11.60;99.90
52187;DHT22;38161;53.020;6.598;2024-01-27T11:34:11;11.80;99.90
52187;DHT22;38161;53.020;6.598;2024-01-27T11:36:45;11.90;99.90
52187;DHT22;38161;53.020;6.598;2024-01-27T11:39:43;12.00;99.90
52187;DHT22;38161;53.020;6.598;2024-01-27T11:42:10;11.80;99.90
52187;DHT22;38161;53.020;6.598;2024-01-27T11:44:39;11.80;99.90
52187;DHT22;38161;53.020;6.598;2024-01-27T11:47:05;11.90;99.90
52187;DHT22;38161;53.020;6.598;2024-01-27T11:49:31;11.90;99.90
52187;DHT22;38161;53.020;6.598;2024-01-27T11:51:58;12.00;99.90
52187;DHT22;38161;53.020;6.598;2024-01-27T11:54:24;11.70;99.90
52187;DHT22;38161;53.020;6.598;2024-01-27T11:56:50;11.50;99.90
52187;DHT22;38161;53.020;6.598;2024-01-27T11:59:16;11.70;99.90
52187;DHT22;38161;53.020;6.598;2024-01-27T12:01:42;11.70;99.90
52187;DHT22;38161;53.020;6.598;2024-01-27T12:04:08;11.70;99.90
52187;DHT22;38161;53.020;6.598;2024-01-27T12:06:34;11.70;99.90
52187;DHT22;38161;53.020;6.598;2024-01-27T12:09:01;11.70;99.90
52187;DHT22;38161;53.020;6.598;2024-01-27T12:11:27;11.70;99.90
52187;DHT22;38161;53.020;6.598;2024-01-27T12:13:53;12.00;99.90
52187;DHT22;38161;53.020;6.598;2024-01-27T12:16:21;12.10;99.90
52187;DHT22;38161;53.020;6.598;2024-01-27T12:18:47;12.00;99.90
52187;DHT22;38161;53.020;6.598;2024-01-27T12:21:13;12.10;99.90
52187;DHT22;38161;53.020;6.598;2024-01-27T12:23:56;12.10;99.90
52187;DHT22;38161;53.020;6.598;2024-01-27T12:26:24;12.20;99.90
52187;DHT22;38161;53.020;6.598;2024-01-27T12:28:50;12.10;99.90
52187;DHT22;38161;53.020;6.598;2024-01-27T12:31:16;11.90;99.90
52187;DHT22;38161;53.020;6.598;2024-01-27T12:33:53;11.80;99.90
52187;DHT22;38161;53.020;6.598;2024-01-27T12:36:21;11.60;99.90
52187;DHT22;38161;53.020;6.598;2024-01-27T12:41:20;11.30;99.90
52187;DHT22;38161;53.020;6.598;2024-01-27T12:43:46;11.30;99.90
52187;DHT22;38161;53.020;6.598;2024-01-27T12:46:12;11.40;99.90
52187;DHT22;38161;53.020;6.598;2024-01-27T12:48:38;11.30;99.90
52187;DHT22;38161;53.020;6.598;2024-01-27T12:51:04;11.30;99.90
52187;DHT22;38161;53.020;6.598;2024-01-27T12:53:30;11.20;99.90
52187;DHT22;38161;53.020;6.598;2024-01-27T12:55:56;11.20;99.90
52187;DHT22;38161;53.020;6.598;2024-01-27T12:58:22;11.30;99.90
52187;DHT22;38161;53.020;6.598;2024-01-27T13:00:48;11.30;99.90
52187;DHT22;38161;53.020;6.598;2024-01-27T13:03:14;11.10;99.90
52187;DHT22;38161;53.020;6.598;2024-01-27T13:05:40;10.90;99.90
52187;DHT22;38161;53.020;6.598;2024-01-27T13:08:06;10.80;99.90
52187;DHT22;38161;53.020;6.598;2024-01-27T13:10:33;10.60;99.90
52187;DHT22;38161;53.020;6.598;2024-01-27T13:12:59;10.60;99.90
52187;DHT22;38161;53.020;6.598;2024-01-27T13:15:25;10.60;99.90
52187;DHT22;38161;53.020;6.598;2024-01-27T13:17:52;10.50;99.90
52187;DHT22;38161;53.020;6.598;2024-01-27T13:20:17;10.50;99.90
52187;DHT22;38161;53.020;6.598;2024-01-27T13:22:44;10.40;99.90
52187;DHT22;38161;53.020;6.598;2024-01-27T13:25:13;10.30;99.90
52187;DHT22;38161;53.020;6.598;2024-01-27T13:27:39;10.20;99.90
52187;DHT22;38161;53.020;6.598;2024-01-27T13:30:05;10.10;99.90
52187;DHT22;38161;53.020;6.598;2024-01-27T13:32:31;10.00;99.90
52187;DHT22;38161;53.020;6.598;2024-01-27T13:34:57;9.90;99.90
52187;DHT22;38161;53.020;6.598;2024-01-27T13:37:23;9.70;99.90
52187;DHT22;38161;53.020;6.598;2024-01-27T13:39:50;9.60;99.90
52187;DHT22;38161;53.020;6.598;2024-01-27T13:42:15;9.60;99.90
52187;DHT22;38161;53.020;6.598;2024-01-27T13:44:42;9.50;99.90
52187;DHT22;38161;53.020;6.598;2024-01-27T13:47:07;9.40;99.90
52187;DHT22;38161;53.020;6.598;2024-01-27T13:49:35;9.30;99.90
52187;DHT22;38161;53.020;6.598;2024-01-27T13:52:02;9.20;99.90
52187;DHT22;38161;53.020;6.598;2024-01-27T13:54:28;9.10;99.90
52187;DHT22;38161;53.020;6.598;2024-01-27T13:56:54;9.00;99.90
52187;DHT22;38161;53.020;6.598;2024-01-27T13:59:20;8.90;99.90
52187;DHT22;38161;53.020;6.598;2024-01-27T14:01:47;8.80;99.90
52187;DHT22;38161;53.020;6.598;2024-01-27T14:04:12;8.80;99.90
52187;DHT22;38161;53.020;6.598;2024-01-27T14:06:38;8.70;99.90
52187;DHT22;38161;53.020;6.598;2024-01-27T14:09:04;8.60;99.90
52187;DHT22;38161;53.020;6.598;2024-01-27T14:11:30;8.60;99.90
52187;DHT22;38161;53.020;6.598;2024-01-27T14:13:56;8.50;99.90
52187;DHT22;38161;53.020;6.598;2024-01-27T14:16:21;8.40;99.90
52187;DHT22;38161;53.020;6.598;2024-01-27T14:18:48;8.40;99.90
52187;DHT22;38161;53.020;6.598;2024-01-27T14:21:13;8.30;99.90
52187;DHT22;38161;53.020;6.598;2024-01-27T14:23:40;8.20;99.90
52187;DHT22;38161;53.020;6.598;2024-01-27T14:26:06;8.20;99.90
52187;DHT22;38161;53.020;6.598;2024-01-27T14:28:33;8.10;99.90
52187;DHT22;38161;53.020;6.598;2024-01-27T14:31:00;8.10;99.90
52187;DHT22;38161;53.020;6.598;2024-01-27T14:33:26;8.10;99.90
52187;DHT22;38161;53.020;6.598;2024-01-27T14:35:52;8.00;99.90
52187;DHT22;38161;53.020;6.598;2024-01-27T14:38:18;8.00;99.90
52187;DHT22;38161;53.020;6.598;2024-01-27T14:40:45;8.00;99.90
52187;DHT22;38161;53.020;6.598;2024-01-27T14:43:11;7.90;99.90
52187;DHT22;38161;53.020;6.598;2024-01-27T14:45:38;7.90;99.90
52187;DHT22;38161;53.020;6.598;2024-01-27T14:48:04;7.90;99.90
52187;DHT22;38161;53.020;6.598;2024-01-27T14:50:30;7.80;99.90
52187;DHT22;38161;53.020;6.598;2024-01-27T14:52:56;7.80;99.90
52187;DHT22;38161;53.020;6.598;2024-01-27T14:55:22;7.80;99.90
52187;DHT22;38161;53.020;6.598;2024-01-27T14:57:49;7.80;99.90
52187;DHT22;38161;53.020;6.598;2024-01-27T15:00:15;7.80;99.90
52187;DHT22;38161;53.020;6.598;2024-01-27T15:02:42;7.70;99.90
52187;DHT22;38161;53.020;6.598;2024-01-27T15:05:09;7.70;99.90
52187;DHT22;38161;53.020;6.598;2024-01-27T15:07:35;7.60;99.90
52187;DHT22;38161;53.020;6.598;2024-01-27T15:10:01;7.50;99.90
52187;DHT22;38161;53.020;6.598;2024-01-27T15:12:27;7.50;99.90
52187;DHT22;38161;53.020;6.598;2024-01-27T15:14:52;7.50;99.90
52187;DHT22;38161;53.020;6.598;2024-01-27T15:17:19;7.50;99.90
52187;DHT22;38161;53.020;6.598;2024-01-27T15:19:45;7.50;99.90
52187;DHT22;38161;53.020;6.598;2024-01-27T15:22:10;7.40;99.90
52187;DHT22;38161;53.020;6.598;2024-01-27T15:24:36;7.40;99.90
52187;DHT22;38161;53.020;6.598;2024-01-27T15:27:04;7.30;99.90
52187;DHT22;38161;53.020;6.598;2024-01-27T15:29:32;7.20;99.90
52187;DHT22;38161;53.020;6.598;2024-01-27T15:31:58;7.30;99.90
52187;DHT22;38161;53.020;6.598;2024-01-27T15:34:24;7.20;99.90
52187;DHT22;38161;53.020;6.598;2024-01-27T15:36:50;7.10;99.90
52187;DHT22;38161;53.020;6.598;2024-01-27T15:39:15;7.00;99.90
52187;DHT22;38161;53.020;6.598;2024-01-27T15:41:41;7.00;99.90